sensor_id;sensor_type;location;lat;lon;timestamp;temperature;humidity
23744;DHT22;12052;53.478;10.182;2023-03-01T00:01:22;-0.90;99.90
23744;DHT22;12052;53.478;10.182;2023-03-01T00:03:49;-0.90;99.90
23744;DHT22;12052;53.478;10.182;2023-03-01T00:06:14;-0.90;99.90
23744;DHT22;12052;53.478;10.182;2023-03-01T00:08:40;-0.90;99.90
23744;DHT22;12052;53.478;10.182;2023-03-01T00:11:07;-0.90;99.90
23744;DHT22;12052;53.478;10.182;2023-03-01T00:13:35;-1.00;99.90
23744;DHT22;12052;53.478;10.182;2023-03-01T00:16:03;-1.00;99.90
23744;DHT22;12052;53.478;10.182;2023-03-01T00:18:29;-1.00;99.90
23744;DHT22;12052;53.478;10.182;2023-03-01T00:20:55;-1.00;99.90
23744;DHT22;12052;53.478;10.182;2023-03-01T00:23:21;-1.00;99.90
23744;DHT22;12052;53.478;10.182;2023-03-01T00:25:48;-1.00;99.90
23744;DHT22;12052;53.478;10.182;2023-03-01T00:28:14;-1.10;99.90
23744;DHT22;12052;53.478;10.182;2023-03-01T00:30:39;-1.10;99.90
23744;DHT22;12052;53.478;10.182;2023-03-01T00:33:05;-1.10;99.90
23744;DHT22;12052;53.478;10.182;2023-03-01T00:35:32;-1.10;99.90
23744;DHT22;12052;53.478;10.182;2023-03-01T00:37:58;-1.10;99.90
23744;DHT22;12052;53.478;10.182;2023-03-01T00:40:26;-1.10;99.90
23744;DHT22;12052;53.478;10.182;2023-03-01T00:42:52;-1.10;99.90
23744;DHT22;12052;53.478;10.182;2023-03-01T00:45:17;-1.10;99.90
23744;DHT22;12052;53.478;10.182;2023-03-01T00:47:43;-1.10;99.90
23744;DHT22;12052;53.478;10.182;2023-03-01T00:50:10;-1.10;99.90
23744;DHT22;12052;53.478;10.182;2023-03-01T00:52:36;-1.20;99.90
23744;DHT22;12052;53.478;10.182;2023-03-01T00:55:03;-1.20;99.90
23744;DHT22;12052;53.478;10.182;2023-03-01T00:57:28;-1.20;99.90
23744;DHT22;12052;53.478;10.182;2023-03-01T00:59:54;-1.20;99.90
23744;DHT22;12052;53.478;10.182;2023-03-01T01:02:20;-1.20;99.90
23744;DHT22;12052;53.478;10.182;2023-03-01T01:04:47;-1.20;99.90
23744;DHT22;12052;53.478;10.182;2023-03-01T01:07:13;-1.20;99.90
23744;DHT22;12052;53.478;10.182;2023-03-01T01:09:38;-1.20;99.90
23744;DHT22;12052;53.478;10.182;2023-03-01T01:12:05;-1.20;99.90
23744;DHT22;12052;53.478;10.182;2023-03-01T01:14:30;-1.20;99.90
23744;DHT22;12052;53.478;10.182;2023-03-01T01:16:56;-1.30;99.90
23744;DHT22;12052;53.478;10.182;2023-03-01T01:19:22;-1.30;99.90
23744;DHT22;12052;53.478;10.182;2023-03-01T01:21:48;-1.30;99.90
23744;DHT22;12052;53.478;10.182;2023-03-01T01:24:14;-1.30;99.90
23744;DHT22;12052;53.478;10.182;2023-03-01T01:26:40;-1.30;99.90
23744;DHT22;12052;53.478;10.182;2023-03-01T01:29:06;-1.30;99.90
23744;DHT22;12052;53.478;10.182;2023-03-01T01:31:34;-1.30;99.90
23744;DHT22;12052;53.478;10.182;2023-03-01T01:34:01;-1.30;99.90
23744;DHT22;12052;53.478;10.182;2023-03-01T01:36:27;-1.30;99.90
23744;DHT22;12052;53.478;10.182;2023-03-01T01:38:53;-1.30;99.90
23744;DHT22;12052;53.478;10.182;2023-03-01T01:41:20;-1.40;99.90
23744;DHT22;12052;53.478;10.182;2023-03-01T01:44:13;-1.40;99.90
23744;DHT22;12052;53.478;10.182;2023-03-01T01:51:48;-1.40;99.90
23744;DHT22;12052;53.478;10.182;2023-03-01T01:54:26;-1.40;99.90
23744;DHT22;12052;53.478;10.182;2023-03-01T01:56:58;-1.40;99.90
23744;DHT22;12052;53.478;10.182;2023-03-01T01:59:26;-1.40;99.90
23744;DHT22;12052;53.478;10.182;2023-03-01T02:01:54;-1.40;99.90
23744;DHT22;12052;53.478;10.182;2023-03-01T02:04:20;-1.40;99.90
23744;DHT22;12052;53.478;10.182;2023-03-01T02:06:51;-1.50;99.90
23744;DHT22;12052;53.478;10.182;2023-03-01T02:09:20;-1.50;99.90
23744;DHT22;12052;53.478;10.182;2023-03-01T02:11:47;-1.50;99.90
23744;DHT22;12052;53.478;10.182;2023-03-01T02:14:14;-1.50;99.90
23744;DHT22;12052;53.478;10.182;2023-03-01T02:16:41;-1.50;99.90
23744;DHT22;12052;53.478;10.182;2023-03-01T02:19:09;-1.50;99.90
23744;DHT22;12052;53.478;10.182;2023-03-01T02:21:48;-1.50;99.90
23744;DHT22;12052;53.478;10.182;2023-03-01T02:24:26;-1.50;99.90
23744;DHT22;12052;53.478;10.182;2023-03-01T02:26:55;-1.50;99.90
23744;DHT22;12052;53.478;10.182;2023-03-01T02:29:23;-1.60;99.90
23744;DHT22;12052;53.478;10.182;2023-03-01T02:31:51;-1.60;99.90
23744;DHT22;12052;53.478;10.182;2023-03-01T02:34:20;-1.50;99.90
23744;DHT22;12052;53.478;10.182;2023-03-01T02:37:03;-1.50;99.90
23744;DHT22;12052;53.478;10.182;2023-03-01T02:39:40;-1.60;99.90
23744;DHT22;12052;53.478;10.182;2023-03-01T02:42:11;-1.60;99.90
23744;DHT22;12052;53.478;10.182;2023-03-01T02:44:37;-1.60;99.90
23744;DHT22;12052;53.478;10.182;2023-03-01T02:47:04;-1.50;99.90
23744;DHT22;12052;53.478;10.182;2023-03-01T02:49:34;-1.50;99.90
23744;DHT22;12052;53.478;10.182;2023-03-01T02:52:26;-1.50;99.90
23744;DHT22;12052;53.478;10.182;2023-03-01T02:55:09;-1.40;99.90
23744;DHT22;12052;53.478;10.182;2023-03-01T02:57:38;-1.40;99.90
23744;DHT22;12052;53.478;10.182;2023-03-01T03:00:07;-1.40;99.90
23744;DHT22;12052;53.478;10.182;2023-03-01T03:02:34;-1.30;99.90
23744;DHT22;12052;53.478;10.182;2023-03-01T03:05:13;-1.30;99.90
23744;DHT22;12052;53.478;10.182;2023-03-01T03:07:41;-1.20;99.90
23744;DHT22;12052;53.478;10.182;2023-03-01T03:10:09;-1.20;99.90
23744;DHT22;12052;53.478;10.182;2023-03-01T03:12:37;-1.20;99.90
23744;DHT22;12052;53.478;10.182;2023-03-01T03:15:03;-1.20;99.90
23744;DHT22;12052;53.478;10.182;2023-03-01T03:17:37;-1.10;99.90
23744;DHT22;12052;53.478;10.182;2023-03-01T03:20:07;-1.10;99.90
23744;DHT22;12052;53.478;10.182;2023-03-01T03:22:40;-1.10;99.90
23744;DHT22;12052;53.478;10.182;2023-03-01T03:25:09;-1.10;99.90
23744;DHT22;12052;53.478;10.182;2023-03-01T03:27:36;-1.10;99.90
23744;DHT22;12052;53.478;10.182;2023-03-01T03:30:04;-1.10;99.90
23744;DHT22;12052;53.478;10.182;2023-03-01T03:32:36;-1.00;99.90
23744;DHT22;12052;53.478;10.182;2023-03-01T03:35:04;-1.00;99.90
23744;DHT22;12052;53.478;10.182;2023-03-01T03:37:39;-1.00;99.90
23744;DHT22;12052;53.478;10.182;2023-03-01T03:40:25;-1.00;99.90
23744;DHT22;12052;53.478;10.182;2023-03-01T03:42:51;-0.90;99.90
23744;DHT22;12052;53.478;10.182;2023-03-01T03:45:17;-1.00;99.90
23744;DHT22;12052;53.478;10.182;2023-03-01T03:47:43;-1.00;99.90
23744;DHT22;12052;53.478;10.182;2023-03-01T03:50:11;-1.00;99.90
23744;DHT22;12052;53.478;10.182;2023-03-01T03:52:36;-0.90;99.90
23744;DHT22;12052;53.478;10.182;2023-03-01T03:55:02;-0.90;99.90
23744;DHT22;12052;53.478;10.182;2023-03-01T03:57:28;-0.90;99.90
23744;DHT22;12052;53.478;10.182;2023-03-01T03:59:54;-0.90;99.90
23744;DHT22;12052;53.478;10.182;2023-03-01T04:02:19;-0.80;99.90
23744;DHT22;12052;53.478;10.182;2023-03-01T04:04:49;-0.80;99.90
23744;DHT22;12052;53.478;10.182;2023-03-01T04:07:17;-0.80;99.90
23744;DHT22;12052;53.478;10.182;2023-03-01T04:09:43;-0.80;99.90
23744;DHT22;12052;53.478;10.182;2023-03-01T04:12:09;-0.80;99.90
23744;DHT22;12052;53.478;10.182;2023-03-01T04:14:35;-0.80;99.90
23744;DHT22;12052;53.478;10.182;2023-03-01T04:17:04;-0.70;99.90
23744;DHT22;12052;53.478;10.182;2023-03-01T04:19:31;-0.70;99.90
23744;DHT22;12052;53.478;10.182;2023-03-01T04:22:04;-0.60;99.90
23744;DHT22;12052;53.478;10.182;2023-03-01T04:24:36;-0.60;99.90
23744;DHT22;12052;53.478;10.182;2023-03-01T04:27:03;-0.60;99.90
23744;DHT22;12052;53.478;10.182;2023-03-01T04:29:30;-0.60;99.90
23744;DHT22;12052;53.478;10.182;2023-03-01T04:31:58;-0.60;99.90
23744;DHT22;12052;53.478;10.182;2023-03-01T04:34:26;-0.60;99.90
23744;DHT22;12052;53.478;10.182;2023-03-01T04:36:54;-0.60;99.90
23744;DHT22;12052;53.478;10.182;2023-03-01T04:39:20;-0.50;99.90
23744;DHT22;12052;53.478;10.182;2023-03-01T04:41:46;-0.50;99.90
23744;DHT22;12052;53.478;10.182;2023-03-01T04:44:11;-0.50;99.90
23744;DHT22;12052;53.478;10.182;2023-03-01T04:46:39;-0.50;99.90
23744;DHT22;12052;53.478;10.182;2023-03-01T04:49:05;-0.40;99.90
23744;DHT22;12052;53.478;10.182;2023-03-01T04:51:31;-0.40;99.90
23744;DHT22;12052;53.478;10.182;2023-03-01T04:54:01;-0.40;99.90
23744;DHT22;12052;53.478;10.182;2023-03-01T04:56:28;-0.40;99.90
23744;DHT22;12052;53.478;10.182;2023-03-01T04:58:54;-0.40;99.90
23744;DHT22;12052;53.478;10.182;2023-03-01T05:01:20;-0.30;99.90
23744;DHT22;12052;53.478;10.182;2023-03-01T05:03:48;-0.40;99.90
23744;DHT22;12052;53.478;10.182;2023-03-01T05:06:18;-0.40;99.90
23744;DHT22;12052;53.478;10.182;2023-03-01T05:08:44;-0.30;99.90
23744;DHT22;12052;53.478;10.182;2023-03-01T05:11:10;-0.30;99.90
23744;DHT22;12052;53.478;10.182;2023-03-01T05:13:38;-0.30;99.90
23744;DHT22;12052;53.478;10.182;2023-03-01T05:16:05;-0.20;99.90
23744;DHT22;12052;53.478;10.182;2023-03-01T05:18:32;-0.20;99.90
23744;DHT22;12052;53.478;10.182;2023-03-01T05:23:30;-0.20;99.90
23744;DHT22;12052;53.478;10.182;2023-03-01T05:25:58;-0.20;99.90
23744;DHT22;12052;53.478;10.182;2023-03-01T05:28:25;-0.20;99.90
23744;DHT22;12052;53.478;10.182;2023-03-01T05:30:51;-0.20;99.90
23744;DHT22;12052;53.478;10.182;2023-03-01T05:33:17;-0.20;99.90
23744;DHT22;12052;53.478;10.182;2023-03-01T05:35:45;-0.20;99.90
23744;DHT22;12052;53.478;10.182;2023-03-01T05:38:12;-0.20;99.90
23744;DHT22;12052;53.478;10.182;2023-03-01T05:40:39;-0.10;99.90
23744;DHT22;12052;53.478;10.182;2023-03-01T05:43:05;-0.10;99.90
23744;DHT22;12052;53.478;10.182;2023-03-01T05:45:31;-0.10;99.90
23744;DHT22;12052;53.478;10.182;2023-03-01T05:48:00;-0.10;99.90
23744;DHT22;12052;53.478;10.182;2023-03-01T05:50:28;0.00;99.90
23744;DHT22;12052;53.478;10.182;2023-03-01T05:53:00;0.00;99.90
23744;DHT22;12052;53.478;10.182;2023-03-01T05:55:28;0.10;99.90
23744;DHT22;12052;53.478;10.182;2023-03-01T05:58:14;0.10;99.90
23744;DHT22;12052;53.478;10.182;2023-03-01T06:00:41;0.10;99.90
23744;DHT22;12052;53.478;10.182;2023-03-01T06:03:10;0.10;99.90
23744;DHT22;12052;53.478;10.182;2023-03-01T06:05:36;0.10;99.90
23744;DHT22;12052;53.478;10.182;2023-03-01T06:08:02;0.20;99.90
23744;DHT22;12052;53.478;10.182;2023-03-01T06:10:29;0.20;99.90
23744;DHT22;12052;53.478;10.182;2023-03-01T06:12:55;0.20;99.90
23744;DHT22;12052;53.478;10.182;2023-03-01T06:15:23;0.20;99.90
23744;DHT22;12052;53.478;10.182;2023-03-01T06:17:57;0.20;99.90
23744;DHT22;12052;53.478;10.182;2023-03-01T06:20:51;0.20;99.90
23744;DHT22;12052;53.478;10.182;2023-03-01T06:23:42;0.20;99.90
23744;DHT22;12052;53.478;10.182;2023-03-01T06:26:09;0.20;99.90
23744;DHT22;12052;53.478;10.182;2023-03-01T06:28:35;0.20;99.90
23744;DHT22;12052;53.478;10.182;2023-03-01T06:31:03;0.20;99.90
23744;DHT22;12052;53.478;10.182;2023-03-01T06:33:28;0.20;99.90
23744;DHT22;12052;53.478;10.182;2023-03-01T06:35:55;0.20;99.90
23744;DHT22;12052;53.478;10.182;2023-03-01T06:38:21;0.30;99.90
23744;DHT22;12052;53.478;10.182;2023-03-01T06:40:52;0.30;99.90
23744;DHT22;12052;53.478;10.182;2023-03-01T06:43:19;0.30;99.90
23744;DHT22;12052;53.478;10.182;2023-03-01T06:45:45;0.30;99.90
23744;DHT22;12052;53.478;10.182;2023-03-01T06:48:11;0.40;99.90
23744;DHT22;12052;53.478;10.182;2023-03-01T06:50:37;0.40;99.90
23744;DHT22;12052;53.478;10.182;2023-03-01T06:53:03;0.40;99.90
23744;DHT22;12052;53.478;10.182;2023-03-01T06:55:28;0.40;99.90
23744;DHT22;12052;53.478;10.182;2023-03-01T06:57:55;0.50;99.90
23744;DHT22;12052;53.478;10.182;2023-03-01T07:00:22;0.50;99.90
23744;DHT22;12052;53.478;10.182;2023-03-01T07:02:47;0.50;99.90
23744;DHT22;12052;53.478;10.182;2023-03-01T07:05:13;0.50;99.90
23744;DHT22;12052;53.478;10.182;2023-03-01T07:07:38;0.50;99.90
23744;DHT22;12052;53.478;10.182;2023-03-01T07:10:05;0.60;99.90
23744;DHT22;12052;53.478;10.182;2023-03-01T07:12:31;0.60;99.90
23744;DHT22;12052;53.478;10.182;2023-03-01T07:14:56;0.70;99.90
23744;DHT22;12052;53.478;10.182;2023-03-01T07:17:24;0.70;99.90
23744;DHT22;12052;53.478;10.182;2023-03-01T07:19:53;0.70;99.90
23744;DHT22;12052;53.478;10.182;2023-03-01T07:22:18;0.80;99.90
23744;DHT22;12052;53.478;10.182;2023-03-01T07:24:49;0.80;99.90
23744;DHT22;12052;53.478;10.182;2023-03-01T07:27:15;0.80;99.90
23744;DHT22;12052;53.478;10.182;2023-03-01T07:29:41;0.90;99.90
23744;DHT22;12052;53.478;10.182;2023-03-01T07:32:06;0.90;99.90
23744;DHT22;12052;53.478;10.182;2023-03-01T07:34:32;0.90;99.90
23744;DHT22;12052;53.478;10.182;2023-03-01T07:36:58;1.00;99.90
23744;DHT22;12052;53.478;10.182;2023-03-01T07:39:24;1.00;99.90
23744;DHT22;12052;53.478;10.182;2023-03-01T07:41:50;1.10;99.90
23744;DHT22;12052;53.478;10.182;2023-03-01T07:44:15;1.10;99.90
23744;DHT22;12052;53.478;10.182;2023-03-01T07:46:43;1.10;99.90
23744;DHT22;12052;53.478;10.182;2023-03-01T07:49:10;1.10;99.90
23744;DHT22;12052;53.478;10.182;2023-03-01T07:51:36;1.20;99.90
23744;DHT22;12052;53.478;10.182;2023-03-01T07:54:02;1.20;99.90
23744;DHT22;12052;53.478;10.182;2023-03-01T07:56:29;1.20;99.90
23744;DHT22;12052;53.478;10.182;2023-03-01T07:59:02;1.30;99.90
23744;DHT22;12052;53.478;10.182;2023-03-01T08:01:31;1.30;99.90
23744;DHT22;12052;53.478;10.182;2023-03-01T08:03:56;1.30;99.90
23744;DHT22;12052;53.478;10.182;2023-03-01T08:06:22;1.30;99.90
23744;DHT22;12052;53.478;10.182;2023-03-01T08:08:49;1.30;99.90
23744;DHT22;12052;53.478;10.182;2023-03-01T08:11:37;1.30;99.90
23744;DHT22;12052;53.478;10.182;2023-03-01T08:14:08;1.20;99.90
23744;DHT22;12052;53.478;10.182;2023-03-01T08:16:36;1.30;99.90
23744;DHT22;12052;53.478;10.182;2023-03-01T08:19:10;1.30;99.90
23744;DHT22;12052;53.478;10.182;2023-03-01T08:21:38;1.30;99.90
23744;DHT22;12052;53.478;10.182;2023-03-01T08:24:08;1.30;99.90
23744;DHT22;12052;53.478;10.182;2023-03-01T08:26:39;1.40;99.90
23744;DHT22;12052;53.478;10.182;2023-03-01T08:29:08;1.40;99.90
23744;DHT22;12052;53.478;10.182;2023-03-01T08:31:36;1.50;99.90
23744;DHT22;12052;53.478;10.182;2023-03-01T08:34:10;1.60;99.90
23744;DHT22;12052;53.478;10.182;2023-03-01T08:36:42;1.70;99.90
23744;DHT22;12052;53.478;10.182;2023-03-01T08:39:11;1.80;99.90
23744;DHT22;12052;53.478;10.182;2023-03-01T08:41:38;1.90;99.90
23744;DHT22;12052;53.478;10.182;2023-03-01T08:44:04;1.90;99.90
23744;DHT22;12052;53.478;10.182;2023-03-01T08:46:35;2.10;99.90
23744;DHT22;12052;53.478;10.182;2023-03-01T08:49:06;2.10;99.90
23744;DHT22;12052;53.478;10.182;2023-03-01T08:51:32;2.20;99.90
23744;DHT22;12052;53.478;10.182;2023-03-01T08:54:21;2.30;99.90
23744;DHT22;12052;53.478;10.182;2023-03-01T08:56:47;2.30;99.90
23744;DHT22;12052;53.478;10.182;2023-03-01T08:59:15;2.30;99.90
23744;DHT22;12052;53.478;10.182;2023-03-01T09:01:41;2.40;99.90
23744;DHT22;12052;53.478;10.182;2023-03-01T09:04:11;2.50;99.90
23744;DHT22;12052;53.478;10.182;2023-03-01T09:06:37;2.60;99.90
23744;DHT22;12052;53.478;10.182;2023-03-01T09:09:05;2.70;99.90
23744;DHT22;12052;53.478;10.182;2023-03-01T09:11:31;2.80;99.90
23744;DHT22;12052;53.478;10.182;2023-03-01T09:13:56;2.90;99.90
23744;DHT22;12052;53.478;10.182;2023-03-01T09:16:23;3.00;99.90
23744;DHT22;12052;53.478;10.182;2023-03-01T09:18:54;3.00;99.90
23744;DHT22;12052;53.478;10.182;2023-03-01T09:21:22;3.20;99.90
23744;DHT22;12052;53.478;10.182;2023-03-01T09:23:48;3.30;99.90
23744;DHT22;12052;53.478;10.182;2023-03-01T09:26:19;3.40;99.90
23744;DHT22;12052;53.478;10.182;2023-03-01T09:28:48;3.50;99.90
23744;DHT22;12052;53.478;10.182;2023-03-01T09:31:17;3.70;99.90
23744;DHT22;12052;53.478;10.182;2023-03-01T09:34:09;4.00;99.90
23744;DHT22;12052;53.478;10.182;2023-03-01T09:36:35;4.10;99.90
23744;DHT22;12052;53.478;10.182;2023-03-01T09:39:05;4.30;99.90
23744;DHT22;12052;53.478;10.182;2023-03-01T09:44:32;4.50;99.90
23744;DHT22;12052;53.478;10.182;2023-03-01T09:46:57;4.60;99.90
23744;DHT22;12052;53.478;10.182;2023-03-01T09:49:33;4.60;99.90
23744;DHT22;12052;53.478;10.182;2023-03-01T09:52:19;4.60;99.90
23744;DHT22;12052;53.478;10.182;2023-03-01T09:54:55;4.70;99.90
23744;DHT22;12052;53.478;10.182;2023-03-01T09:57:35;4.80;99.90
23744;DHT22;12052;53.478;10.182;2023-03-01T10:02:49;5.00;99.90
23744;DHT22;12052;53.478;10.182;2023-03-01T10:05:54;5.00;99.90
23744;DHT22;12052;53.478;10.182;2023-03-01T10:08:46;5.10;99.90
23744;DHT22;12052;53.478;10.182;2023-03-01T10:11:24;5.20;99.90
23744;DHT22;12052;53.478;10.182;2023-03-01T10:19:06;5.40;99.90
23744;DHT22;12052;53.478;10.182;2023-03-01T10:21:42;5.40;99.90
23744;DHT22;12052;53.478;10.182;2023-03-01T10:24:18;5.60;99.90
23744;DHT22;12052;53.478;10.182;2023-03-01T10:26:56;5.70;99.90
23744;DHT22;12052;53.478;10.182;2023-03-01T10:29:37;5.90;99.90
23744;DHT22;12052;53.478;10.182;2023-03-01T10:32:05;6.20;99.90
23744;DHT22;12052;53.478;10.182;2023-03-01T10:34:34;6.40;99.90
23744;DHT22;12052;53.478;10.182;2023-03-01T10:39:54;6.80;99.90
23744;DHT22;12052;53.478;10.182;2023-03-01T10:42:29;7.00;99.90
23744;DHT22;12052;53.478;10.182;2023-03-01T10:44:58;7.20;99.90
23744;DHT22;12052;53.478;10.182;2023-03-01T10:47:39;7.20;99.90
23744;DHT22;12052;53.478;10.182;2023-03-01T10:50:09;7.40;99.90
23744;DHT22;12052;53.478;10.182;2023-03-01T10:52:57;7.50;99.90
23744;DHT22;12052;53.478;10.182;2023-03-01T10:58:16;7.50;99.90
23744;DHT22;12052;53.478;10.182;2023-03-01T11:00:52;7.40;99.90
23744;DHT22;12052;53.478;10.182;2023-03-01T11:05:59;7.30;99.90
23744;DHT22;12052;53.478;10.182;2023-03-01T11:14:03;7.20;99.90
23744;DHT22;12052;53.478;10.182;2023-03-01T11:16:39;7.10;99.90
23744;DHT22;12052;53.478;10.182;2023-03-01T11:21:51;7.10;99.90
23744;DHT22;12052;53.478;10.182;2023-03-01T11:24:21;7.10;99.90
23744;DHT22;12052;53.478;10.182;2023-03-01T11:26:53;7.20;99.90
23744;DHT22;12052;53.478;10.182;2023-03-01T11:29:42;7.30;99.90
23744;DHT22;12052;53.478;10.182;2023-03-01T11:32:13;7.40;99.90
23744;DHT22;12052;53.478;10.182;2023-03-01T11:35:10;7.30;99.90
23744;DHT22;12052;53.478;10.182;2023-03-01T11:37:44;7.40;99.90
23744;DHT22;12052;53.478;10.182;2023-03-01T11:40:29;7.40;99.90
23744;DHT22;12052;53.478;10.182;2023-03-01T11:50:53;7.60;99.90
23744;DHT22;12052;53.478;10.182;2023-03-01T12:10:23;8.00;99.90
23744;DHT22;12052;53.478;10.182;2023-03-01T12:13:01;8.00;99.90
23744;DHT22;12052;53.478;10.182;2023-03-01T12:27:07;8.10;99.90
23744;DHT22;12052;53.478;10.182;2023-03-01T12:29:58;8.20;99.90
23744;DHT22;12052;53.478;10.182;2023-03-01T12:35:15;8.20;99.90
23744;DHT22;12052;53.478;10.182;2023-03-01T12:38:08;8.20;99.90
23744;DHT22;12052;53.478;10.182;2023-03-01T12:40:46;8.30;99.90
23744;DHT22;12052;53.478;10.182;2023-03-01T12:43:28;8.30;99.90
23744;DHT22;12052;53.478;10.182;2023-03-01T12:49:32;8.30;99.90
23744;DHT22;12052;53.478;10.182;2023-03-01T12:51:38;8.40;99.90
23744;DHT22;12052;53.478;10.182;2023-03-01T12:54:14;8.40;99.90
23744;DHT22;12052;53.478;10.182;2023-03-01T12:56:41;8.40;99.90
23744;DHT22;12052;53.478;10.182;2023-03-01T12:59:24;8.40;99.90
23744;DHT22;12052;53.478;10.182;2023-03-01T13:02:21;8.40;99.90
23744;DHT22;12052;53.478;10.182;2023-03-01T13:07:41;8.50;99.90
23744;DHT22;12052;53.478;10.182;2023-03-01T13:10:17;8.50;99.90
23744;DHT22;12052;53.478;10.182;2023-03-01T13:17:57;8.50;99.90
23744;DHT22;12052;53.478;10.182;2023-03-01T13:26:00;8.70;99.90
23744;DHT22;12052;53.478;10.182;2023-03-01T13:28:46;8.80;99.90
23744;DHT22;12052;53.478;10.182;2023-03-01T13:33:54;8.80;99.90
23744;DHT22;12052;53.478;10.182;2023-03-01T13:39:04;8.80;99.90
23744;DHT22;12052;53.478;10.182;2023-03-01T13:46:54;8.70;99.90
23744;DHT22;12052;53.478;10.182;2023-03-01T13:49:41;8.70;99.90
23744;DHT22;12052;53.478;10.182;2023-03-01T13:55:27;8.90;99.90
23744;DHT22;12052;53.478;10.182;2023-03-01T13:57:59;8.90;99.90
23744;DHT22;12052;53.478;10.182;2023-03-01T14:00:38;9.00;99.90
23744;DHT22;12052;53.478;10.182;2023-03-01T14:08:29;8.90;99.90
23744;DHT22;12052;53.478;10.182;2023-03-01T14:13:50;8.80;99.90
23744;DHT22;12052;53.478;10.182;2023-03-01T14:19:20;8.80;99.90
23744;DHT22;12052;53.478;10.182;2023-03-01T14:21:59;8.80;99.90
23744;DHT22;12052;53.478;10.182;2023-03-01T14:24:28;8.80;99.90
23744;DHT22;12052;53.478;10.182;2023-03-01T14:26:54;8.80;99.90
23744;DHT22;12052;53.478;10.182;2023-03-01T14:29:37;8.80;99.90
23744;DHT22;12052;53.478;10.182;2023-03-01T14:32:10;8.90;99.90
23744;DHT22;12052;53.478;10.182;2023-03-01T14:34:36;8.80;99.90
23744;DHT22;12052;53.478;10.182;2023-03-01T14:37:32;8.80;99.90
23744;DHT22;12052;53.478;10.182;2023-03-01T14:40:00;8.70;99.90
23744;DHT22;12052;53.478;10.182;2023-03-01T14:42:29;8.80;99.90
23744;DHT22;12052;53.478;10.182;2023-03-01T14:44:57;8.80;99.90
23744;DHT22;12052;53.478;10.182;2023-03-01T14:47:25;8.70;99.90
23744;DHT22;12052;53.478;10.182;2023-03-01T14:50:00;8.70;99.90
23744;DHT22;12052;53.478;10.182;2023-03-01T14:52:39;8.80;99.90
23744;DHT22;12052;53.478;10.182;2023-03-01T14:55:25;8.70;99.90
23744;DHT22;12052;53.478;10.182;2023-03-01T14:57:52;8.70;99.90
23744;DHT22;12052;53.478;10.182;2023-03-01T15:00:27;8.70;99.90
23744;DHT22;12052;53.478;10.182;2023-03-01T15:02:55;8.60;99.90
23744;DHT22;12052;53.478;10.182;2023-03-01T15:05:31;8.60;99.90
23744;DHT22;12052;53.478;10.182;2023-03-01T15:07:59;8.60;99.90
23744;DHT22;12052;53.478;10.182;2023-03-01T15:10:28;8.60;99.90
23744;DHT22;12052;53.478;10.182;2023-03-01T15:12:55;8.70;99.90
23744;DHT22;12052;53.478;10.182;2023-03-01T15:15:36;8.60;99.90
23744;DHT22;12052;53.478;10.182;2023-03-01T15:18:11;8.60;99.90
23744;DHT22;12052;53.478;10.182;2023-03-01T15:20:38;8.60;99.90
23744;DHT22;12052;53.478;10.182;2023-03-01T15:23:04;8.50;99.90
23744;DHT22;12052;53.478;10.182;2023-03-01T15:25:31;8.50;99.90
23744;DHT22;12052;53.478;10.182;2023-03-01T15:27:59;8.40;99.90
23744;DHT22;12052;53.478;10.182;2023-03-01T15:30:32;8.40;99.90
23744;DHT22;12052;53.478;10.182;2023-03-01T15:33:35;8.30;99.90
23744;DHT22;12052;53.478;10.182;2023-03-01T15:36:29;8.30;99.90
23744;DHT22;12052;53.478;10.182;2023-03-01T15:38:55;8.20;99.90
23744;DHT22;12052;53.478;10.182;2023-03-01T15:41:27;8.20;99.90
23744;DHT22;12052;53.478;10.182;2023-03-01T15:43:57;8.20;99.90
23744;DHT22;12052;53.478;10.182;2023-03-01T15:46:34;8.10;99.90
23744;DHT22;12052;53.478;10.182;2023-03-01T15:51:51;8.10;99.90
23744;DHT22;12052;53.478;10.182;2023-03-01T15:54:21;8.00;99.90
23744;DHT22;12052;53.478;10.182;2023-03-01T15:56:47;7.90;99.90
23744;DHT22;12052;53.478;10.182;2023-03-01T15:59:13;7.90;99.90
23744;DHT22;12052;53.478;10.182;2023-03-01T16:01:43;7.90;99.90
23744;DHT22;12052;53.478;10.182;2023-03-01T16:04:13;7.80;99.90
23744;DHT22;12052;53.478;10.182;2023-03-01T16:06:54;7.80;99.90
23744;DHT22;12052;53.478;10.182;2023-03-01T16:09:24;7.70;99.90
23744;DHT22;12052;53.478;10.182;2023-03-01T16:11:51;7.70;99.90
23744;DHT22;12052;53.478;10.182;2023-03-01T16:14:17;7.60;99.90
23744;DHT22;12052;53.478;10.182;2023-03-01T16:16:44;7.60;99.90
23744;DHT22;12052;53.478;10.182;2023-03-01T16:19:09;7.50;99.90
23744;DHT22;12052;53.478;10.182;2023-03-01T16:21:37;7.50;99.90
23744;DHT22;12052;53.478;10.182;2023-03-01T16:24:04;7.40;99.90
23744;DHT22;12052;53.478;10.182;2023-03-01T16:26:30;7.40;99.90
23744;DHT22;12052;53.478;10.182;2023-03-01T16:28:57;7.40;99.90
23744;DHT22;12052;53.478;10.182;2023-03-01T16:31:24;7.30;99.90
23744;DHT22;12052;53.478;10.182;2023-03-01T16:33:55;7.30;99.90
23744;DHT22;12052;53.478;10.182;2023-03-01T16:36:21;7.20;99.90
23744;DHT22;12052;53.478;10.182;2023-03-01T16:38:50;7.10;99.90
23744;DHT22;12052;53.478;10.182;2023-03-01T16:41:17;7.10;99.90
23744;DHT22;12052;53.478;10.182;2023-03-01T16:43:44;7.10;99.90
23744;DHT22;12052;53.478;10.182;2023-03-01T16:46:16;7.00;99.90
23744;DHT22;12052;53.478;10.182;2023-03-01T16:48:43;6.90;99.90
23744;DHT22;12052;53.478;10.182;2023-03-01T16:51:09;6.90;99.90
23744;DHT22;12052;53.478;10.182;2023-03-01T16:53:36;6.90;99.90
23744;DHT22;12052;53.478;10.182;2023-03-01T16:56:05;6.80;99.90
23744;DHT22;12052;53.478;10.182;2023-03-01T16:58:34;6.70;99.90
23744;DHT22;12052;53.478;10.182;2023-03-01T17:01:06;6.70;99.90
23744;DHT22;12052;53.478;10.182;2023-03-01T17:06:22;6.60;99.90
23744;DHT22;12052;53.478;10.182;2023-03-01T17:12:15;6.50;99.90
23744;DHT22;12052;53.478;10.182;2023-03-01T17:14:41;6.40;99.90
23744;DHT22;12052;53.478;10.182;2023-03-01T17:17:10;6.40;99.90
23744;DHT22;12052;53.478;10.182;2023-03-01T17:19:37;6.30;99.90
23744;DHT22;12052;53.478;10.182;2023-03-01T17:22:09;6.30;99.90
23744;DHT22;12052;53.478;10.182;2023-03-01T17:24:39;6.20;99.90
23744;DHT22;12052;53.478;10.182;2023-03-01T17:27:05;6.10;99.90
23744;DHT22;12052;53.478;10.182;2023-03-01T17:29:32;6.10;99.90
23744;DHT22;12052;53.478;10.182;2023-03-01T17:31:58;6.00;99.90
23744;DHT22;12052;53.478;10.182;2023-03-01T17:34:24;5.90;99.90
23744;DHT22;12052;53.478;10.182;2023-03-01T17:36:50;5.90;99.90
23744;DHT22;12052;53.478;10.182;2023-03-01T17:39:19;5.80;99.90
23744;DHT22;12052;53.478;10.182;2023-03-01T17:41:53;5.70;99.90
23744;DHT22;12052;53.478;10.182;2023-03-01T17:44:19;5.70;99.90
23744;DHT22;12052;53.478;10.182;2023-03-01T17:46:44;5.60;99.90
23744;DHT22;12052;53.478;10.182;2023-03-01T17:49:10;5.60;99.90